Time;durP1;ratioP1;P1;durP2;ratioP2;P2;SDS_P1;SDS_P2;PMS_P1;PMS_P2;Temp;Humidity;BMP_temperature;BMP_pressure;BME280_temperature;BME280_humidity;BME280_pressure;Samples;Min_cycle;Max_cycle;Signal;HPM_P1;HPM_P2
2022/11/25 00:05:29;;;;;;;1.73;0.93;;;14.30;83.40;;;;;;20995707;28;20129;-57
2022/11/25 00:15:33;;;;;;;1.77;1.15;;;14.30;83.30;;;;;;20995334;28;20044;-57
2022/11/25 00:25:34;;;;;;;2.20;1.02;;;14.40;83.30;;;;;;20995779;28;20523;-58
2022/11/25 00:35:37;;;;;;;2.70;1.58;;;14.40;83.00;;;;;;21008705;28;20044;-58
2022/11/25 00:45:39;;;;;;;2.55;1.50;;;14.30;83.20;;;;;;21010959;28;20419;-57
2022/11/25 01:06:11;;;;;;;2.03;1.20;;;14.30;83.30;;;;;;20834875;28;20056;-57
2022/11/25 01:16:15;;;;;;;2.60;1.20;;;14.20;83.30;;;;;;20818252;28;20057;-59
2022/11/25 01:26:20;;;;;;;2.65;1.38;;;14.20;83.30;;;;;;20833333;28;20053;-59
2022/11/25 01:36:22;;;;;;;2.03;1.10;;;14.20;83.50;;;;;;20878360;28;20520;-58
2022/11/25 01:46:49;;;;;;;2.17;1.40;;;14.10;83.70;;;;;;20987433;28;20131;-58
2022/11/25 01:56:59;;;;;;;2.30;1.30;;;14.20;83.80;;;;;;21005096;28;20135;-56
2022/11/25 02:07:10;;;;;;;2.00;1.23;;;14.10;84.10;;;;;;21004593;28;20393;-56
2022/11/25 02:17:11;;;;;;;1.85;1.30;;;14.10;84.30;;;;;;21003488;28;20045;-58
2022/11/25 02:27:13;;;;;;;2.67;1.27;;;14.20;83.90;;;;;;21002275;28;20091;-57
2022/11/25 02:37:17;;;;;;;2.10;1.20;;;14.10;83.70;;;;;;21001371;28;20051;-55
2022/11/25 02:47:19;;;;;;;2.22;1.35;;;14.00;83.80;;;;;;21000901;28;20084;-56
2022/11/25 02:57:20;;;;;;;4.57;1.80;;;14.00;83.90;;;;;;21000587;28;20127;-57
2022/11/25 03:07:26;;;;;;;2.30;1.23;;;14.00;83.80;;;;;;21000072;28;20048;-57
2022/11/25 03:17:32;;;;;;;2.30;1.35;;;14.00;83.50;;;;;;20998829;28;20060;-57
2022/11/25 03:27:55;;;;;;;1.75;1.00;;;13.80;83.70;;;;;;20998721;28;20048;-57
2022/11/25 03:38:16;;;;;;;5.82;1.10;;;13.80;83.80;;;;;;20998193;28;20470;-56
2022/11/25 03:48:26;;;;;;;2.85;1.40;;;13.70;83.90;;;;;;20996702;28;20053;-56
2022/11/25 03:58:38;;;;;;;3.80;1.80;;;13.80;83.80;;;;;;20997015;28;20052;-55
2022/11/25 04:08:51;;;;;;;2.70;1.70;;;13.80;83.90;;;;;;20995434;28;20048;-58
2022/11/25 04:19:01;;;;;;;4.20;2.05;;;13.80;84.40;;;;;;20995002;28;20049;-56
2022/11/25 04:29:14;;;;;;;3.75;2.13;;;13.80;84.50;;;;;;20994713;28;20106;-58
2022/11/25 04:39:16;;;;;;;4.07;2.08;;;13.80;84.40;;;;;;20994676;28;20143;-56
2022/11/25 04:49:34;;;;;;;2.63;2.30;;;13.90;84.10;;;;;;20994139;28;20076;-56
2022/11/25 04:59:40;;;;;;;3.50;2.40;;;13.90;84.40;;;;;;20976687;28;20048;-57
2022/11/25 05:09:42;;;;;;;5.30;3.13;;;13.90;84.80;;;;;;20993364;28;20053;-58
2022/11/25 05:19:48;;;;;;;2.55;2.28;;;13.90;85.10;;;;;;21003012;28;20468;-58
2022/11/25 05:29:51;;;;;;;5.43;2.30;;;13.80;85.00;;;;;;21006850;28;20417;-58
2022/11/25 05:39:54;;;;;;;3.65;2.47;;;13.70;85.10;;;;;;21006893;28;20470;-59
2022/11/25 05:49:55;;;;;;;2.40;1.92;;;13.60;85.00;;;;;;21006059;28;20055;-58
2022/11/25 05:59:57;;;;;;;2.15;1.63;;;13.50;84.90;;;;;;21006055;28;20056;-58
2022/11/25 06:10:00;;;;;;;2.45;1.50;;;13.30;84.10;;;;;;21004845;28;20420;-58
2022/11/25 06:20:03;;;;;;;2.35;1.30;;;13.30;82.90;;;;;;21004365;28;20408;-58
2022/11/25 06:30:06;;;;;;;3.03;1.52;;;13.20;82.60;;;;;;21001963;28;20059;-58
2022/11/25 06:40:08;;;;;;;1.88;1.20;;;13.00;82.10;;;;;;21002482;28;20049;-58
2022/11/25 06:50:10;;;;;;;2.08;1.40;;;12.90;79.90;;;;;;21001677;28;20052;-59
2022/11/25 07:00:12;;;;;;;2.97;1.13;;;12.70;79.40;;;;;;20999925;28;20060;-58
2022/11/25 07:10:14;;;;;;;3.85;1.98;;;12.60;78.40;;;;;;20999870;28;20496;-58
2022/11/25 07:20:16;;;;;;;3.35;2.00;;;12.50;77.20;;;;;;20999019;28;20056;-58
2022/11/25 07:30:19;;;;;;;2.85;1.50;;;12.30;77.00;;;;;;20997806;28;20123;-58
2022/11/25 07:40:21;;;;;;;3.70;1.98;;;12.30;76.20;;;;;;20996828;28;20056;-59
2022/11/25 07:50:22;;;;;;;2.63;1.40;;;12.30;74.90;;;;;;20997781;28;20114;-58
2022/11/25 08:00:24;;;;;;;3.28;1.40;;;12.30;73.50;;;;;;20995540;28;20056;-56
2022/11/25 08:10:26;;;;;;;6.10;1.35;;;12.20;70.60;;;;;;20995220;28;20045;-58
2022/11/25 08:20:30;;;;;;;4.45;1.52;;;12.20;68.80;;;;;;20995023;28;20049;-56
2022/11/25 08:30:33;;;;;;;5.07;1.60;;;12.30;68.40;;;;;;20994565;28;20488;-59
2022/11/25 08:40:36;;;;;;;4.85;1.45;;;12.30;66.40;;;;;;20994796;28;20040;-59
2022/11/25 08:50:45;;;;;;;5.35;1.40;;;12.40;63.10;;;;;;20981324;28;20114;-59
2022/11/25 09:00:47;;;;;;;6.28;1.50;;;12.50;62.20;;;;;;20992806;28;20542;-56
2022/11/25 09:10:48;;;;;;;6.47;1.75;;;12.70;62.10;;;;;;21009036;28;20083;-56
2022/11/25 09:20:49;;;;;;;10.18;1.95;;;12.80;60.30;;;;;;21008896;28;20559;-54
2022/11/25 09:30:51;;;;;;;8.73;2.85;;;13.00;58.40;;;;;;21006849;28;20048;-54
2022/11/25 09:41:04;;;;;;;4.95;1.60;;;13.20;56.80;;;;;;21006755;28;20056;-58
2022/11/25 09:51:19;;;;;;;5.27;1.20;;;13.30;53.30;;;;;;21006826;28;20044;-58
2022/11/25 10:01:24;;;;;;;3.72;1.20;;;13.40;53.00;;;;;;20986975;28;20139;-56
2022/11/25 10:11:43;;;;;;;3.08;1.17;;;13.70;53.10;;;;;;21005047;28;20142;-58
2022/11/25 10:21:45;;;;;;;5.10;1.75;;;13.70;52.70;;;;;;21003500;28;20053;-59
2022/11/25 10:31:48;;;;;;;3.88;1.83;;;13.60;52.40;;;;;;21003035;28;20080;-58
2022/11/25 10:41:52;;;;;;;4.40;1.27;;;13.70;52.80;;;;;;21002280;28;20053;-58
2022/11/25 10:51:56;;;;;;;7.30;3.13;;;13.80;51.00;;;;;;21002172;28;20055;-59
2022/11/25 11:02:15;;;;;;;4.93;1.05;;;13.90;50.70;;;;;;21001312;28;20083;-59
2022/11/25 11:12:28;;;;;;;4.20;1.30;;;14.10;49.50;;;;;;20998967;28;20098;-59
2022/11/25 11:22:32;;;;;;;7.05;2.28;;;14.20;49.70;;;;;;20981741;28;20059;-58
2022/11/25 11:32:33;;;;;;;6.10;2.60;;;14.40;49.80;;;;;;20998333;28;20053;-57
2022/11/25 11:42:45;;;;;;;6.30;1.70;;;14.40;49.80;;;;;;20997847;28;20063;-57
2022/11/25 11:52:57;;;;;;;3.53;1.42;;;14.50;48.60;;;;;;20997135;28;20499;-55
2022/11/25 12:03:10;;;;;;;5.60;1.20;;;14.60;48.30;;;;;;20996133;28;20060;-57
2022/11/25 12:13:20;;;;;;;9.55;3.80;;;14.60;47.40;;;;;;20996548;28;20079;-57
2022/11/25 12:23:27;;;;;;;5.07;1.20;;;14.70;47.00;;;;;;20993863;28;20468;-56
2022/11/25 12:33:42;;;;;;;6.70;1.55;;;14.70;45.70;;;;;;20994043;28;20174;-55
2022/11/25 12:43:49;;;;;;;;;;;14.80;46.70;;;;;;20995553;28;20386;-57
2022/11/25 12:53:53;;;;;;;6.00;2.33;;;14.80;45.80;;;;;;20995493;28;19960;-56
2022/11/25 13:04:35;;;;;;;6.20;1.50;;;14.90;45.20;;;;;;20994490;28;20131;-59
2022/11/25 13:15:14;;;;;;;5.80;1.50;;;15.00;45.50;;;;;;20993848;28;20110;-56
2022/11/25 13:25:28;;;;;;;4.45;1.30;;;15.20;45.00;;;;;;20985080;28;20053;-58
2022/11/25 13:35:33;;;;;;;4.22;1.40;;;15.30;44.70;;;;;;20994353;28;20455;-56
2022/11/25 13:45:42;;;;;;;4.55;1.33;;;15.50;44.20;;;;;;21006712;28;20056;-58
2022/11/25 13:55:44;;;;;;;5.00;1.17;;;15.40;43.10;;;;;;21006937;28;20548;-58
2022/11/25 14:06:11;;;;;;;5.03;1.73;;;15.60;41.80;;;;;;21006337;28;20127;-57
2022/11/25 14:16:37;;;;;;;3.00;1.52;;;15.70;38.90;;;;;;21005928;28;20059;-57
2022/11/25 14:26:40;;;;;;;4.57;1.38;;;15.60;38.50;;;;;;21003753;28;20265;-58
2022/11/25 14:36:51;;;;;;;2.85;1.25;;;15.50;38.40;;;;;;21002414;28;20051;-57
2022/11/25 14:46:55;;;;;;;3.45;1.10;;;15.40;40.50;;;;;;21000845;28;20485;-57
2022/11/25 14:56:58;;;;;;;2.87;1.60;;;15.30;40.30;;;;;;21001354;28;20060;-58
2022/11/25 15:07:00;;;;;;;5.68;1.30;;;15.20;40.40;;;;;;21000756;28;20053;-58
2022/11/25 15:17:18;;;;;;;2.53;1.00;;;15.20;41.00;;;;;;20999981;28;20049;-58
2022/11/25 15:27:26;;;;;;;3.45;1.27;;;15.20;40.20;;;;;;20999388;28;20049;-59
2022/11/25 15:37:28;;;;;;;5.35;2.05;;;15.00;40.80;;;;;;20998987;28;20443;-59
2022/11/25 15:47:31;;;;;;;5.70;1.20;;;15.00;41.50;;;;;;20998269;28;20051;-56
2022/11/25 15:57:37;;;;;;;4.22;1.90;;;14.90;40.70;;;;;;20996607;28;20048;-59
2022/11/25 16:07:51;;;;;;;3.05;1.00;;;14.90;41.20;;;;;;20996161;28;20097;-58
2022/11/25 16:17:52;;;;;;;2.70;0.87;;;14.80;41.90;;;;;;20995272;28;20484;-58
2022/11/25 16:27:59;;;;;;;4.45;1.77;;;14.70;41.50;;;;;;20976194;28;20105;-59
2022/11/25 16:38:02;;;;;;;2.45;0.90;;;14.50;42.30;;;;;;20994503;28;20048;-59
2022/11/25 16:48:18;;;;;;;3.95;1.17;;;14.50;42.20;;;;;;20994082;28;20352;-57
2022/11/25 16:58:24;;;;;;;4.43;1.23;;;14.40;42.50;;;;;;20993569;28;20151;-56
2022/11/25 17:08:25;;;;;;;3.33;0.98;;;14.10;43.90;;;;;;20993812;28;20049;-56
2022/11/25 17:18:27;;;;;;;3.60;1.48;;;14.00;43.40;;;;;;21005975;28;20048;-59
2022/11/25 17:28:28;;;;;;;4.10;1.55;;;13.90;44.30;;;;;;21005834;28;20135;-57
2022/11/25 17:38:31;;;;;;;5.22;1.63;;;13.80;44.30;;;;;;21006179;28;20067;-58
2022/11/25 17:48:33;;;;;;;7.05;1.42;;;13.70;44.40;;;;;;21005337;28;20075;-57
2022/11/25 17:58:34;;;;;;;2.72;1.88;;;13.70;45.00;;;;;;21005055;28;20057;-60
2022/11/25 18:08:36;;;;;;;4.28;1.83;;;13.60;45.10;;;;;;21004582;28;20537;-59
2022/11/25 18:18:39;;;;;;;6.20;2.10;;;13.50;46.70;;;;;;21003455;28;20060;-56
2022/11/25 18:28:41;;;;;;;5.28;2.50;;;13.80;49.90;;;;;;21001158;28;20044;-57
2022/11/25 18:38:44;;;;;;;8.25;2.58;;;13.40;47.60;;;;;;21001584;28;20056;-58
2022/11/25 18:48:45;;;;;;;6.78;3.03;;;13.90;51.70;;;;;;21001797;28;20044;-59
2022/11/25 18:58:50;;;;;;;9.50;5.43;;;13.40;48.80;;;;;;21001407;28;20052;-58
2022/11/25 19:08:52;;;;;;;7.78;2.92;;;13.30;47.70;;;;;;20999522;28;20071;-56
2022/11/25 19:18:53;;;;;;;4.70;2.38;;;13.10;49.50;;;;;;20999300;28;20476;-57
2022/11/25 19:29:06;;;;;;;6.68;2.92;;;12.90;50.60;;;;;;20998091;28;20097;-59
2022/11/25 19:39:16;;;;;;;6.68;3.13;;;13.10;49.70;;;;;;20997160;28;20098;-58
2022/11/25 19:49:18;;;;;;;6.28;3.08;;;12.80;50.70;;;;;;20997435;28;20389;-57
2022/11/25 19:59:20;;;;;;;8.27;4.55;;;12.80;50.00;;;;;;20995856;28;20109;-55
2022/11/25 20:09:22;;;;;;;9.98;3.53;;;12.90;51.10;;;;;;20995168;28;20049;-56
2022/11/25 20:19:23;;;;;;;9.93;4.78;;;12.70;50.70;;;;;;20995313;28;20057;-55
2022/11/25 20:29:25;;;;;;;11.00;4.88;;;12.50;51.40;;;;;;20995022;28;20458;-55
2022/11/25 20:39:26;;;;;;;6.00;3.22;;;12.50;51.60;;;;;;20994927;28;20450;-55
2022/11/25 20:49:28;;;;;;;5.55;3.70;;;12.30;52.20;;;;;;21003517;28;20051;-58
2022/11/25 20:59:30;;;;;;;8.25;3.63;;;12.30;51.70;;;;;;21011029;28;20496;-56
2022/11/25 21:09:34;;;;;;;12.52;7.13;;;12.10;52.70;;;;;;21009299;28;20052;-56
2022/11/25 21:19:37;;;;;;;9.88;5.30;;;11.90;55.00;;;;;;21009128;28;20054;-56
2022/11/25 21:29:42;;;;;;;11.57;5.88;;;11.50;56.70;;;;;;21008038;28;20454;-57
2022/11/25 21:39:44;;;;;;;6.40;3.80;;;11.30;58.10;;;;;;21007240;28;20057;-56
2022/11/25 21:49:46;;;;;;;13.60;6.43;;;10.80;58.60;;;;;;21007196;28;20045;-57
2022/11/25 21:59:48;;;;;;;10.35;5.22;;;10.80;58.70;;;;;;21005363;28;20063;-58
2022/11/25 22:09:50;;;;;;;8.52;4.15;;;10.60;59.70;;;;;;21005140;28;20553;-56
2022/11/25 22:19:52;;;;;;;9.60;5.15;;;10.40;60.30;;;;;;21003744;28;20044;-56
2022/11/25 22:29:54;;;;;;;12.48;5.57;;;10.20;61.00;;;;;;21002684;28;20093;-56
2022/11/25 22:39:56;;;;;;;7.50;4.22;;;10.00;61.60;;;;;;21002600;28;20106;-57
2022/11/25 22:50:01;;;;;;;11.73;5.20;;;9.80;62.10;;;;;;21002707;28;20396;-56
2022/11/25 23:00:04;;;;;;;14.83;8.03;;;9.80;62.40;;;;;;21002008;28;20052;-57
2022/11/25 23:10:19;;;;;;;6.55;4.18;;;;;;;;;;21000351;28;20376;-57
2022/11/25 23:20:22;;;;;;;;;;;;;;;;;;21000682;28;20044;-56
2022/11/25 23:30:26;;;;;;;7.60;4.30;;;9.30;62.20;;;;;;20998837;28;19973;-57
2022/11/25 23:40:32;;;;;;;10.20;5.68;;;;;;;;;;20997938;28;20139;-56
2022/11/25 23:50:34;;;;;;;6.55;3.90;;;;;;;;;;20998717;28;20557;-56
